Airfield :
LOGIN :

Register | Disclaimer

   EN    FR    IT 

 










Legend :    VFR   Marginal VFR   IFR   Intensive IFR   Very Intensive IFR
Visi :
Ceiling :
>= 8 km
>= 3000ft
5 to 8 km
1000 to 3000 ft
1500m to 5 km
500 to 1000 ft
800 to 1500m
200 to 500 ft
< 800m
< 200 ft
Symbols :   Thunderstorms  Fog  Heavy snow  Heavy precipitations  Wind > 20 kt
SIGMETs :     Misc.  Thunderstorms  Icing  Turbulence  Mountain Waves  Volcanic Ashes







- Airport Elevation : 68 ft
- IATA code : AGH


ESTA - Ängelholm-Helsingborg

CURRENT METAR :
  • 210720Z 25011KT 9999 -RA SCT013CB BKN066 16/13 Q1024 RERA

EXPIRED METARs :
  • 210650Z 27008KT 9999 SCT012 BKN032 BKN062 15/13 Q1023
  • 210620Z 24007KT 9999 VCTS VCSH FEW012 SCT027CB 15/13 Q1024
  • 210550Z 17005KT 9999 FEW024 13/13 Q1023
  • 210520Z 19004KT 9000 SCT026 12/11 Q1023
  • 210450Z 18004KT 9000 SCT024 10/10 Q1023

TAF TAF ESTA
Valid from the 21 at 06:00 until the 21 at 15:00 UTC


210501Z 2106/2115 20005KT 9999 SCT030
TEMPO 2106/2112 SHRA SCT020CB
BECMG 2109/2111 29012KT
No reported NOTAMs for that airfield.



MET'MAP, your aeronautical weather chart ! - Copyright ORBIFLY December 2007 - Disclaimer

ORBIFLY MET'MAP TEAM :

Programming & Development : Alexandra Zaïnal
Concept & Development : Baudouin d'Aumeries
Co-Development & Prog : Marc-Olivier Méhu
Technical & hardware support : Manuel Goepfert

Contact : metmap@orbifly.com




SOURCES & CREDITS :

   NOAA